sensor_id;sensor_type;location;lat;lon;timestamp;P1;durP1;ratioP1;P2;durP2;ratioP2
5351;SDS011;2698;51.454;6.736;2023-09-19T00:00:14;25.40;;;4.00;;
5351;SDS011;2698;51.454;6.736;2023-09-19T00:02:45;13.13;;;4.10;;
5351;SDS011;2698;51.454;6.736;2023-09-19T00:05:13;11.90;;;3.33;;
5351;SDS011;2698;51.454;6.736;2023-09-19T00:07:40;17.90;;;3.93;;
5351;SDS011;2698;51.454;6.736;2023-09-19T00:10:07;8.50;;;3.20;;
5351;SDS011;2698;51.454;6.736;2023-09-19T00:12:35;22.23;;;4.23;;
5351;SDS011;2698;51.454;6.736;2023-09-19T00:15:03;13.30;;;3.20;;
5351;SDS011;2698;51.454;6.736;2023-09-19T00:17:31;13.57;;;3.60;;
5351;SDS011;2698;51.454;6.736;2023-09-19T00:20:01;10.73;;;3.13;;
5351;SDS011;2698;51.454;6.736;2023-09-19T00:22:32;10.03;;;3.20;;
5351;SDS011;2698;51.454;6.736;2023-09-19T00:24:59;11.47;;;3.30;;
5351;SDS011;2698;51.454;6.736;2023-09-19T00:27:27;11.93;;;3.73;;
5351;SDS011;2698;51.454;6.736;2023-09-19T00:29:55;37.23;;;4.67;;
5351;SDS011;2698;51.454;6.736;2023-09-19T00:32:22;9.93;;;2.80;;
5351;SDS011;2698;51.454;6.736;2023-09-19T00:34:49;14.90;;;3.87;;
5351;SDS011;2698;51.454;6.736;2023-09-19T00:37:17;14.53;;;3.30;;
5351;SDS011;2698;51.454;6.736;2023-09-19T00:39:44;11.00;;;2.63;;
5351;SDS011;2698;51.454;6.736;2023-09-19T00:42:17;21.27;;;3.93;;
5351;SDS011;2698;51.454;6.736;2023-09-19T00:44:45;18.97;;;3.43;;
5351;SDS011;2698;51.454;6.736;2023-09-19T00:47:16;18.30;;;4.93;;
5351;SDS011;2698;51.454;6.736;2023-09-19T00:49:43;8.83;;;3.23;;
5351;SDS011;2698;51.454;6.736;2023-09-19T00:52:14;14.33;;;3.80;;
5351;SDS011;2698;51.454;6.736;2023-09-19T00:54:45;22.13;;;3.73;;
5351;SDS011;2698;51.454;6.736;2023-09-19T00:57:13;27.53;;;2.83;;
5351;SDS011;2698;51.454;6.736;2023-09-19T00:59:44;19.10;;;4.00;;
5351;SDS011;2698;51.454;6.736;2023-09-19T01:02:11;15.20;;;3.20;;
5351;SDS011;2698;51.454;6.736;2023-09-19T01:04:39;14.83;;;3.43;;
5351;SDS011;2698;51.454;6.736;2023-09-19T01:07:07;9.07;;;2.77;;
5351;SDS011;2698;51.454;6.736;2023-09-19T01:09:34;12.70;;;3.73;;
5351;SDS011;2698;51.454;6.736;2023-09-19T01:12:04;13.53;;;4.10;;
5351;SDS011;2698;51.454;6.736;2023-09-19T01:14:34;22.00;;;3.50;;
5351;SDS011;2698;51.454;6.736;2023-09-19T01:17:05;15.60;;;4.10;;
5351;SDS011;2698;51.454;6.736;2023-09-19T01:19:53;18.77;;;4.00;;
5351;SDS011;2698;51.454;6.736;2023-09-19T01:22:29;21.10;;;4.00;;
5351;SDS011;2698;51.454;6.736;2023-09-19T01:25:14;10.70;;;2.90;;
5351;SDS011;2698;51.454;6.736;2023-09-19T01:27:52;16.90;;;3.70;;
5351;SDS011;2698;51.454;6.736;2023-09-19T01:30:24;22.13;;;4.53;;
5351;SDS011;2698;51.454;6.736;2023-09-19T01:32:54;12.63;;;3.57;;
5351;SDS011;2698;51.454;6.736;2023-09-19T01:35:22;16.37;;;4.00;;
5351;SDS011;2698;51.454;6.736;2023-09-19T01:37:49;14.30;;;3.80;;
5351;SDS011;2698;51.454;6.736;2023-09-19T01:40:18;23.43;;;5.00;;
5351;SDS011;2698;51.454;6.736;2023-09-19T01:42:48;24.10;;;4.83;;
5351;SDS011;2698;51.454;6.736;2023-09-19T01:45:22;13.90;;;4.97;;
5351;SDS011;2698;51.454;6.736;2023-09-19T01:47:53;16.23;;;4.60;;
5351;SDS011;2698;51.454;6.736;2023-09-19T01:50:24;16.10;;;4.67;;
5351;SDS011;2698;51.454;6.736;2023-09-19T01:52:57;10.60;;;3.50;;
5351;SDS011;2698;51.454;6.736;2023-09-19T01:55:26;19.03;;;4.37;;
5351;SDS011;2698;51.454;6.736;2023-09-19T01:57:58;15.40;;;4.13;;
5351;SDS011;2698;51.454;6.736;2023-09-19T02:00:29;14.10;;;4.70;;
5351;SDS011;2698;51.454;6.736;2023-09-19T02:03:00;13.40;;;3.93;;
5351;SDS011;2698;51.454;6.736;2023-09-19T02:05:27;18.00;;;3.23;;
5351;SDS011;2698;51.454;6.736;2023-09-19T02:07:54;15.73;;;4.53;;
5351;SDS011;2698;51.454;6.736;2023-09-19T02:10:22;19.83;;;4.53;;
5351;SDS011;2698;51.454;6.736;2023-09-19T02:12:50;11.60;;;4.23;;
5351;SDS011;2698;51.454;6.736;2023-09-19T02:15:18;17.60;;;4.77;;
5351;SDS011;2698;51.454;6.736;2023-09-19T02:17:45;13.30;;;3.73;;
5351;SDS011;2698;51.454;6.736;2023-09-19T02:20:13;10.10;;;4.17;;
5351;SDS011;2698;51.454;6.736;2023-09-19T02:22:42;14.70;;;3.23;;
5351;SDS011;2698;51.454;6.736;2023-09-19T02:25:09;20.27;;;5.00;;
5351;SDS011;2698;51.454;6.736;2023-09-19T02:27:38;12.20;;;3.97;;
5351;SDS011;2698;51.454;6.736;2023-09-19T02:30:06;14.73;;;4.57;;
5351;SDS011;2698;51.454;6.736;2023-09-19T02:32:33;16.10;;;3.77;;
5351;SDS011;2698;51.454;6.736;2023-09-19T02:35:04;12.30;;;4.63;;
5351;SDS011;2698;51.454;6.736;2023-09-19T02:37:32;14.23;;;3.77;;
5351;SDS011;2698;51.454;6.736;2023-09-19T02:40:00;16.80;;;3.63;;
5351;SDS011;2698;51.454;6.736;2023-09-19T02:42:43;16.17;;;3.83;;
5351;SDS011;2698;51.454;6.736;2023-09-19T02:45:14;16.50;;;3.00;;
5351;SDS011;2698;51.454;6.736;2023-09-19T02:47:42;21.50;;;3.80;;
5351;SDS011;2698;51.454;6.736;2023-09-19T02:50:09;17.33;;;4.07;;
5351;SDS011;2698;51.454;6.736;2023-09-19T02:52:40;11.27;;;4.00;;
5351;SDS011;2698;51.454;6.736;2023-09-19T02:55:09;18.53;;;4.23;;
5351;SDS011;2698;51.454;6.736;2023-09-19T02:57:36;17.70;;;4.40;;
5351;SDS011;2698;51.454;6.736;2023-09-19T03:00:06;12.33;;;3.30;;
5351;SDS011;2698;51.454;6.736;2023-09-19T03:02:35;12.43;;;3.73;;
5351;SDS011;2698;51.454;6.736;2023-09-19T03:05:03;17.67;;;3.40;;
5351;SDS011;2698;51.454;6.736;2023-09-19T03:07:30;19.70;;;3.20;;
5351;SDS011;2698;51.454;6.736;2023-09-19T03:09:59;12.57;;;3.43;;
5351;SDS011;2698;51.454;6.736;2023-09-19T03:12:26;11.10;;;3.03;;
5351;SDS011;2698;51.454;6.736;2023-09-19T03:14:53;14.33;;;3.87;;
5351;SDS011;2698;51.454;6.736;2023-09-19T03:17:20;12.23;;;2.93;;
5351;SDS011;2698;51.454;6.736;2023-09-19T03:19:47;12.80;;;3.80;;
5351;SDS011;2698;51.454;6.736;2023-09-19T03:22:15;13.87;;;3.40;;
5351;SDS011;2698;51.454;6.736;2023-09-19T03:24:43;16.77;;;3.40;;
5351;SDS011;2698;51.454;6.736;2023-09-19T03:27:12;14.20;;;2.93;;
5351;SDS011;2698;51.454;6.736;2023-09-19T03:29:41;14.40;;;3.40;;
5351;SDS011;2698;51.454;6.736;2023-09-19T03:32:08;10.70;;;3.03;;
5351;SDS011;2698;51.454;6.736;2023-09-19T03:34:36;18.20;;;3.70;;
5351;SDS011;2698;51.454;6.736;2023-09-19T03:37:05;8.67;;;3.00;;
5351;SDS011;2698;51.454;6.736;2023-09-19T03:39:32;13.20;;;3.10;;
5351;SDS011;2698;51.454;6.736;2023-09-19T03:42:00;14.10;;;3.67;;
5351;SDS011;2698;51.454;6.736;2023-09-19T03:44:29;8.20;;;3.17;;
5351;SDS011;2698;51.454;6.736;2023-09-19T03:46:56;13.50;;;4.33;;
5351;SDS011;2698;51.454;6.736;2023-09-19T03:49:23;15.03;;;3.70;;
5351;SDS011;2698;51.454;6.736;2023-09-19T03:51:50;10.43;;;3.73;;
5351;SDS011;2698;51.454;6.736;2023-09-19T03:54:17;16.20;;;3.47;;
5351;SDS011;2698;51.454;6.736;2023-09-19T03:56:45;17.10;;;4.00;;
5351;SDS011;2698;51.454;6.736;2023-09-19T03:59:12;8.00;;;2.93;;
5351;SDS011;2698;51.454;6.736;2023-09-19T04:01:40;10.80;;;3.70;;
5351;SDS011;2698;51.454;6.736;2023-09-19T04:04:08;17.30;;;3.80;;
5351;SDS011;2698;51.454;6.736;2023-09-19T04:06:35;4.50;;;2.30;;
5351;SDS011;2698;51.454;6.736;2023-09-19T04:09:02;20.37;;;4.53;;
5351;SDS011;2698;51.454;6.736;2023-09-19T04:11:31;11.73;;;2.93;;
5351;SDS011;2698;51.454;6.736;2023-09-19T04:13:59;20.50;;;4.47;;
5351;SDS011;2698;51.454;6.736;2023-09-19T04:16:26;15.17;;;2.97;;
5351;SDS011;2698;51.454;6.736;2023-09-19T04:18:54;12.00;;;3.60;;
5351;SDS011;2698;51.454;6.736;2023-09-19T04:21:21;13.20;;;3.27;;
5351;SDS011;2698;51.454;6.736;2023-09-19T04:23:49;14.77;;;3.60;;
5351;SDS011;2698;51.454;6.736;2023-09-19T04:26:16;8.57;;;3.20;;
5351;SDS011;2698;51.454;6.736;2023-09-19T04:28:43;7.67;;;2.77;;
5351;SDS011;2698;51.454;6.736;2023-09-19T04:31:11;11.43;;;3.03;;
5351;SDS011;2698;51.454;6.736;2023-09-19T04:33:39;13.83;;;3.93;;
5351;SDS011;2698;51.454;6.736;2023-09-19T04:36:10;15.30;;;3.93;;
5351;SDS011;2698;51.454;6.736;2023-09-19T04:38:38;8.43;;;3.53;;
5351;SDS011;2698;51.454;6.736;2023-09-19T04:41:06;14.47;;;3.90;;
5351;SDS011;2698;51.454;6.736;2023-09-19T04:43:33;34.80;;;6.73;;
5351;SDS011;2698;51.454;6.736;2023-09-19T04:46:00;10.83;;;3.47;;
5351;SDS011;2698;51.454;6.736;2023-09-19T04:48:28;10.67;;;3.40;;
5351;SDS011;2698;51.454;6.736;2023-09-19T04:50:55;18.50;;;3.13;;
5351;SDS011;2698;51.454;6.736;2023-09-19T04:53:23;16.40;;;3.23;;
5351;SDS011;2698;51.454;6.736;2023-09-19T04:55:51;11.77;;;3.23;;
5351;SDS011;2698;51.454;6.736;2023-09-19T04:58:20;15.73;;;3.00;;
5351;SDS011;2698;51.454;6.736;2023-09-19T05:00:47;12.77;;;3.50;;
5351;SDS011;2698;51.454;6.736;2023-09-19T05:03:16;10.37;;;3.30;;
5351;SDS011;2698;51.454;6.736;2023-09-19T05:05:46;14.37;;;3.47;;
5351;SDS011;2698;51.454;6.736;2023-09-19T05:08:13;14.07;;;3.80;;
5351;SDS011;2698;51.454;6.736;2023-09-19T05:10:41;12.30;;;3.57;;
5351;SDS011;2698;51.454;6.736;2023-09-19T05:13:11;13.50;;;3.50;;
5351;SDS011;2698;51.454;6.736;2023-09-19T05:15:38;11.23;;;4.03;;
5351;SDS011;2698;51.454;6.736;2023-09-19T05:18:06;16.60;;;4.20;;
5351;SDS011;2698;51.454;6.736;2023-09-19T05:20:33;7.50;;;3.70;;
5351;SDS011;2698;51.454;6.736;2023-09-19T05:23:03;15.53;;;3.83;;
5351;SDS011;2698;51.454;6.736;2023-09-19T05:25:33;16.20;;;4.77;;
5351;SDS011;2698;51.454;6.736;2023-09-19T05:28:03;16.43;;;3.67;;
5351;SDS011;2698;51.454;6.736;2023-09-19T05:30:31;15.30;;;4.80;;
5351;SDS011;2698;51.454;6.736;2023-09-19T05:32:58;16.33;;;3.73;;
5351;SDS011;2698;51.454;6.736;2023-09-19T05:35:26;13.20;;;4.20;;
5351;SDS011;2698;51.454;6.736;2023-09-19T05:37:54;21.23;;;5.67;;
5351;SDS011;2698;51.454;6.736;2023-09-19T05:40:21;9.97;;;3.43;;
5351;SDS011;2698;51.454;6.736;2023-09-19T05:42:49;21.10;;;4.23;;
5351;SDS011;2698;51.454;6.736;2023-09-19T05:45:18;22.53;;;4.20;;
5351;SDS011;2698;51.454;6.736;2023-09-19T05:47:47;14.77;;;4.23;;
5351;SDS011;2698;51.454;6.736;2023-09-19T05:50:15;19.17;;;4.03;;
5351;SDS011;2698;51.454;6.736;2023-09-19T05:52:43;7.40;;;3.50;;
5351;SDS011;2698;51.454;6.736;2023-09-19T05:55:11;20.90;;;4.03;;
5351;SDS011;2698;51.454;6.736;2023-09-19T05:57:38;17.93;;;2.80;;
5351;SDS011;2698;51.454;6.736;2023-09-19T06:00:05;10.77;;;3.30;;
5351;SDS011;2698;51.454;6.736;2023-09-19T06:02:37;21.43;;;3.90;;
5351;SDS011;2698;51.454;6.736;2023-09-19T06:05:05;23.97;;;4.10;;
5351;SDS011;2698;51.454;6.736;2023-09-19T06:07:35;15.30;;;3.47;;
5351;SDS011;2698;51.454;6.736;2023-09-19T06:10:02;9.03;;;3.43;;
5351;SDS011;2698;51.454;6.736;2023-09-19T06:12:31;15.77;;;4.10;;
5351;SDS011;2698;51.454;6.736;2023-09-19T06:15:02;19.80;;;4.23;;
5351;SDS011;2698;51.454;6.736;2023-09-19T06:17:30;15.13;;;3.87;;
5351;SDS011;2698;51.454;6.736;2023-09-19T06:19:58;12.77;;;3.53;;
5351;SDS011;2698;51.454;6.736;2023-09-19T06:22:25;21.70;;;4.90;;
5351;SDS011;2698;51.454;6.736;2023-09-19T06:24:52;11.27;;;3.03;;
5351;SDS011;2698;51.454;6.736;2023-09-19T06:27:20;14.87;;;3.20;;
5351;SDS011;2698;51.454;6.736;2023-09-19T06:29:47;13.63;;;4.63;;
5351;SDS011;2698;51.454;6.736;2023-09-19T06:32:14;22.33;;;3.87;;
5351;SDS011;2698;51.454;6.736;2023-09-19T06:34:42;16.53;;;3.37;;
5351;SDS011;2698;51.454;6.736;2023-09-19T06:37:12;10.00;;;3.07;;
5351;SDS011;2698;51.454;6.736;2023-09-19T06:39:39;20.10;;;3.77;;
5351;SDS011;2698;51.454;6.736;2023-09-19T06:42:06;11.83;;;3.90;;
5351;SDS011;2698;51.454;6.736;2023-09-19T06:44:34;17.83;;;3.97;;
5351;SDS011;2698;51.454;6.736;2023-09-19T06:47:01;12.70;;;3.47;;
5351;SDS011;2698;51.454;6.736;2023-09-19T06:49:29;16.97;;;3.83;;
5351;SDS011;2698;51.454;6.736;2023-09-19T06:51:56;13.17;;;3.40;;
5351;SDS011;2698;51.454;6.736;2023-09-19T06:54:24;17.83;;;4.23;;
5351;SDS011;2698;51.454;6.736;2023-09-19T06:56:56;12.40;;;4.10;;
5351;SDS011;2698;51.454;6.736;2023-09-19T06:59:23;12.93;;;3.50;;
5351;SDS011;2698;51.454;6.736;2023-09-19T07:01:50;10.73;;;3.33;;
5351;SDS011;2698;51.454;6.736;2023-09-19T07:04:17;17.00;;;4.07;;
5351;SDS011;2698;51.454;6.736;2023-09-19T07:06:48;19.17;;;3.73;;
5351;SDS011;2698;51.454;6.736;2023-09-19T07:09:16;17.37;;;5.10;;
5351;SDS011;2698;51.454;6.736;2023-09-19T07:11:46;14.63;;;4.20;;
5351;SDS011;2698;51.454;6.736;2023-09-19T07:14:15;21.83;;;4.43;;
5351;SDS011;2698;51.454;6.736;2023-09-19T07:16:42;16.20;;;3.30;;
5351;SDS011;2698;51.454;6.736;2023-09-19T07:19:10;17.20;;;3.83;;
5351;SDS011;2698;51.454;6.736;2023-09-19T07:21:37;24.50;;;4.60;;
5351;SDS011;2698;51.454;6.736;2023-09-19T07:24:04;12.40;;;3.17;;
5351;SDS011;2698;51.454;6.736;2023-09-19T07:26:33;21.13;;;4.60;;
5351;SDS011;2698;51.454;6.736;2023-09-19T07:29:01;18.80;;;4.27;;
5351;SDS011;2698;51.454;6.736;2023-09-19T07:31:28;16.00;;;3.47;;
5351;SDS011;2698;51.454;6.736;2023-09-19T07:33:56;12.50;;;3.67;;
5351;SDS011;2698;51.454;6.736;2023-09-19T07:36:23;19.70;;;4.47;;
5351;SDS011;2698;51.454;6.736;2023-09-19T07:38:50;15.77;;;3.07;;
5351;SDS011;2698;51.454;6.736;2023-09-19T07:41:17;12.83;;;3.60;;
5351;SDS011;2698;51.454;6.736;2023-09-19T07:43:46;14.97;;;3.70;;
5351;SDS011;2698;51.454;6.736;2023-09-19T07:46:14;17.17;;;4.00;;
5351;SDS011;2698;51.454;6.736;2023-09-19T07:48:41;15.53;;;3.80;;
5351;SDS011;2698;51.454;6.736;2023-09-19T07:51:13;15.60;;;3.63;;
5351;SDS011;2698;51.454;6.736;2023-09-19T07:53:42;12.03;;;3.27;;
5351;SDS011;2698;51.454;6.736;2023-09-19T07:56:09;19.43;;;4.50;;
5351;SDS011;2698;51.454;6.736;2023-09-19T07:58:39;18.10;;;3.67;;
5351;SDS011;2698;51.454;6.736;2023-09-19T08:01:09;8.83;;;3.37;;
5351;SDS011;2698;51.454;6.736;2023-09-19T08:03:39;18.67;;;4.47;;
5351;SDS011;2698;51.454;6.736;2023-09-19T08:06:08;8.57;;;3.07;;
5351;SDS011;2698;51.454;6.736;2023-09-19T08:08:35;18.13;;;4.03;;
5351;SDS011;2698;51.454;6.736;2023-09-19T08:11:03;15.97;;;3.67;;
5351;SDS011;2698;51.454;6.736;2023-09-19T08:13:35;9.00;;;2.97;;
5351;SDS011;2698;51.454;6.736;2023-09-19T08:16:06;22.43;;;3.43;;
5351;SDS011;2698;51.454;6.736;2023-09-19T08:18:33;11.83;;;2.80;;
5351;SDS011;2698;51.454;6.736;2023-09-19T08:21:02;12.73;;;3.50;;
5351;SDS011;2698;51.454;6.736;2023-09-19T08:23:29;19.23;;;4.00;;
5351;SDS011;2698;51.454;6.736;2023-09-19T08:25:57;21.47;;;3.83;;
5351;SDS011;2698;51.454;6.736;2023-09-19T08:28:26;14.33;;;3.60;;
5351;SDS011;2698;51.454;6.736;2023-09-19T08:30:54;27.13;;;4.27;;
5351;SDS011;2698;51.454;6.736;2023-09-19T08:33:23;30.87;;;4.70;;
5351;SDS011;2698;51.454;6.736;2023-09-19T08:35:50;26.03;;;3.77;;
5351;SDS011;2698;51.454;6.736;2023-09-19T08:38:18;16.50;;;3.43;;
5351;SDS011;2698;51.454;6.736;2023-09-19T08:40:45;8.20;;;3.43;;
5351;SDS011;2698;51.454;6.736;2023-09-19T08:43:13;17.10;;;4.20;;
5351;SDS011;2698;51.454;6.736;2023-09-19T08:45:40;18.20;;;3.87;;
5351;SDS011;2698;51.454;6.736;2023-09-19T08:48:20;10.00;;;3.47;;
5351;SDS011;2698;51.454;6.736;2023-09-19T08:50:51;12.87;;;3.50;;
5351;SDS011;2698;51.454;6.736;2023-09-19T08:53:25;16.27;;;3.70;;
5351;SDS011;2698;51.454;6.736;2023-09-19T08:55:54;12.60;;;3.97;;
5351;SDS011;2698;51.454;6.736;2023-09-19T08:58:23;17.67;;;4.03;;
5351;SDS011;2698;51.454;6.736;2023-09-19T09:00:53;12.40;;;3.50;;
5351;SDS011;2698;51.454;6.736;2023-09-19T09:03:22;12.33;;;4.27;;
5351;SDS011;2698;51.454;6.736;2023-09-19T09:05:49;21.90;;;4.87;;
5351;SDS011;2698;51.454;6.736;2023-09-19T09:08:18;12.60;;;4.13;;
5351;SDS011;2698;51.454;6.736;2023-09-19T09:10:48;18.70;;;4.20;;
5351;SDS011;2698;51.454;6.736;2023-09-19T09:13:16;17.23;;;4.03;;
5351;SDS011;2698;51.454;6.736;2023-09-19T09:15:43;16.43;;;3.87;;
5351;SDS011;2698;51.454;6.736;2023-09-19T09:18:10;18.00;;;4.20;;
5351;SDS011;2698;51.454;6.736;2023-09-19T09:20:38;14.53;;;2.90;;
5351;SDS011;2698;51.454;6.736;2023-09-19T09:23:06;19.30;;;3.83;;
5351;SDS011;2698;51.454;6.736;2023-09-19T09:25:51;17.03;;;4.60;;
5351;SDS011;2698;51.454;6.736;2023-09-19T09:28:22;11.47;;;4.60;;
5351;SDS011;2698;51.454;6.736;2023-09-19T09:30:48;9.67;;;3.77;;
5351;SDS011;2698;51.454;6.736;2023-09-19T09:33:16;9.50;;;3.23;;
5351;SDS011;2698;51.454;6.736;2023-09-19T09:35:50;9.37;;;3.23;;
5351;SDS011;2698;51.454;6.736;2023-09-19T09:38:18;17.90;;;4.60;;
5351;SDS011;2698;51.454;6.736;2023-09-19T09:40:46;13.37;;;3.53;;
5351;SDS011;2698;51.454;6.736;2023-09-19T09:43:34;21.20;;;4.23;;
5351;SDS011;2698;51.454;6.736;2023-09-19T09:46:13;7.90;;;3.97;;
5351;SDS011;2698;51.454;6.736;2023-09-19T09:49:10;14.93;;;4.43;;
5351;SDS011;2698;51.454;6.736;2023-09-19T09:51:58;14.07;;;3.70;;
5351;SDS011;2698;51.454;6.736;2023-09-19T09:54:30;6.67;;;4.00;;
5351;SDS011;2698;51.454;6.736;2023-09-19T09:57:03;19.20;;;3.60;;
5351;SDS011;2698;51.454;6.736;2023-09-19T09:59:49;12.80;;;3.33;;
5351;SDS011;2698;51.454;6.736;2023-09-19T10:02:18;13.13;;;2.90;;
5351;SDS011;2698;51.454;6.736;2023-09-19T10:04:49;22.73;;;3.90;;
5351;SDS011;2698;51.454;6.736;2023-09-19T10:07:35;14.13;;;4.70;;
5351;SDS011;2698;51.454;6.736;2023-09-19T10:10:03;8.33;;;2.90;;
5351;SDS011;2698;51.454;6.736;2023-09-19T10:12:42;10.53;;;3.53;;
5351;SDS011;2698;51.454;6.736;2023-09-19T10:15:11;10.73;;;3.70;;
5351;SDS011;2698;51.454;6.736;2023-09-19T10:17:40;16.17;;;3.80;;
5351;SDS011;2698;51.454;6.736;2023-09-19T10:20:10;17.27;;;3.93;;
5351;SDS011;2698;51.454;6.736;2023-09-19T10:22:49;9.43;;;3.63;;
5351;SDS011;2698;51.454;6.736;2023-09-19T10:25:23;10.67;;;3.87;;
5351;SDS011;2698;51.454;6.736;2023-09-19T10:27:51;16.20;;;3.80;;
5351;SDS011;2698;51.454;6.736;2023-09-19T10:30:22;15.07;;;3.10;;
5351;SDS011;2698;51.454;6.736;2023-09-19T10:32:49;13.43;;;4.00;;
5351;SDS011;2698;51.454;6.736;2023-09-19T10:35:20;9.40;;;3.27;;
5351;SDS011;2698;51.454;6.736;2023-09-19T10:37:49;12.83;;;3.73;;
5351;SDS011;2698;51.454;6.736;2023-09-19T10:40:17;11.10;;;3.43;;
5351;SDS011;2698;51.454;6.736;2023-09-19T10:42:45;17.00;;;4.37;;
5351;SDS011;2698;51.454;6.736;2023-09-19T10:45:12;18.73;;;4.00;;
5351;SDS011;2698;51.454;6.736;2023-09-19T10:47:42;13.33;;;3.97;;
5351;SDS011;2698;51.454;6.736;2023-09-19T10:50:09;10.87;;;3.27;;
5351;SDS011;2698;51.454;6.736;2023-09-19T10:52:38;10.27;;;3.20;;
5351;SDS011;2698;51.454;6.736;2023-09-19T10:55:08;8.83;;;3.53;;
5351;SDS011;2698;51.454;6.736;2023-09-19T10:57:36;16.63;;;3.50;;
5351;SDS011;2698;51.454;6.736;2023-09-19T11:00:03;17.10;;;3.10;;
5351;SDS011;2698;51.454;6.736;2023-09-19T11:05:33;9.93;;;3.33;;
5351;SDS011;2698;51.454;6.736;2023-09-19T11:08:05;13.73;;;3.70;;
5351;SDS011;2698;51.454;6.736;2023-09-19T11:10:44;18.70;;;3.87;;
5351;SDS011;2698;51.454;6.736;2023-09-19T11:13:24;14.37;;;3.03;;
5351;SDS011;2698;51.454;6.736;2023-09-19T11:16:02;8.90;;;3.00;;
5351;SDS011;2698;51.454;6.736;2023-09-19T11:26:57;12.83;;;3.17;;
5351;SDS011;2698;51.454;6.736;2023-09-19T11:29:35;13.30;;;3.73;;
5351;SDS011;2698;51.454;6.736;2023-09-19T11:32:02;15.23;;;3.37;;
5351;SDS011;2698;51.454;6.736;2023-09-19T11:34:37;26.77;;;4.20;;
5351;SDS011;2698;51.454;6.736;2023-09-19T11:37:03;12.60;;;3.67;;
5351;SDS011;2698;51.454;6.736;2023-09-19T11:39:31;8.67;;;3.20;;
5351;SDS011;2698;51.454;6.736;2023-09-19T11:41:59;6.93;;;2.67;;
5351;SDS011;2698;51.454;6.736;2023-09-19T11:44:34;10.83;;;3.30;;
5351;SDS011;2698;51.454;6.736;2023-09-19T11:47:03;13.90;;;3.03;;
5351;SDS011;2698;51.454;6.736;2023-09-19T11:49:31;11.40;;;3.90;;
5351;SDS011;2698;51.454;6.736;2023-09-19T11:51:59;8.70;;;3.67;;
5351;SDS011;2698;51.454;6.736;2023-09-19T11:54:29;10.70;;;3.30;;
5351;SDS011;2698;51.454;6.736;2023-09-19T11:56:57;10.10;;;3.73;;
5351;SDS011;2698;51.454;6.736;2023-09-19T11:59:26;14.50;;;3.73;;
5351;SDS011;2698;51.454;6.736;2023-09-19T12:01:55;18.00;;;4.40;;
5351;SDS011;2698;51.454;6.736;2023-09-19T12:07:06;12.30;;;4.30;;
5351;SDS011;2698;51.454;6.736;2023-09-19T12:09:40;11.43;;;3.10;;
5351;SDS011;2698;51.454;6.736;2023-09-19T12:12:09;12.17;;;3.60;;
5351;SDS011;2698;51.454;6.736;2023-09-19T12:14:38;17.40;;;4.23;;
5351;SDS011;2698;51.454;6.736;2023-09-19T12:17:08;13.43;;;3.30;;
5351;SDS011;2698;51.454;6.736;2023-09-19T12:19:38;10.93;;;3.07;;
5351;SDS011;2698;51.454;6.736;2023-09-19T12:22:05;10.87;;;3.27;;
5351;SDS011;2698;51.454;6.736;2023-09-19T12:24:34;8.53;;;3.50;;
5351;SDS011;2698;51.454;6.736;2023-09-19T12:27:04;13.00;;;3.33;;
5351;SDS011;2698;51.454;6.736;2023-09-19T12:29:31;7.70;;;2.97;;
5351;SDS011;2698;51.454;6.736;2023-09-19T12:32:00;7.27;;;2.83;;
5351;SDS011;2698;51.454;6.736;2023-09-19T12:34:30;8.80;;;2.80;;
5351;SDS011;2698;51.454;6.736;2023-09-19T12:37:09;12.43;;;3.67;;
5351;SDS011;2698;51.454;6.736;2023-09-19T12:39:46;9.13;;;3.30;;
5351;SDS011;2698;51.454;6.736;2023-09-19T12:42:16;5.53;;;2.30;;
5351;SDS011;2698;51.454;6.736;2023-09-19T12:44:44;7.13;;;2.53;;
5351;SDS011;2698;51.454;6.736;2023-09-19T12:47:13;11.33;;;2.93;;
5351;SDS011;2698;51.454;6.736;2023-09-19T12:52:34;14.53;;;3.00;;
5351;SDS011;2698;51.454;6.736;2023-09-19T12:55:01;9.70;;;3.00;;
5351;SDS011;2698;51.454;6.736;2023-09-19T12:57:30;15.00;;;3.10;;
5351;SDS011;2698;51.454;6.736;2023-09-19T13:00:00;5.77;;;3.00;;
5351;SDS011;2698;51.454;6.736;2023-09-19T13:02:28;8.73;;;3.20;;
5351;SDS011;2698;51.454;6.736;2023-09-19T13:04:55;9.63;;;2.63;;
5351;SDS011;2698;51.454;6.736;2023-09-19T13:07:40;8.63;;;2.10;;
5351;SDS011;2698;51.454;6.736;2023-09-19T13:10:10;5.03;;;2.17;;
5351;SDS011;2698;51.454;6.736;2023-09-19T13:12:40;8.33;;;2.60;;
5351;SDS011;2698;51.454;6.736;2023-09-19T13:15:09;13.50;;;2.77;;
5351;SDS011;2698;51.454;6.736;2023-09-19T13:17:46;6.80;;;2.67;;
5351;SDS011;2698;51.454;6.736;2023-09-19T13:20:20;3.57;;;2.03;;
5351;SDS011;2698;51.454;6.736;2023-09-19T13:22:52;21.03;;;4.13;;
5351;SDS011;2698;51.454;6.736;2023-09-19T13:25:21;8.47;;;3.20;;
5351;SDS011;2698;51.454;6.736;2023-09-19T13:27:49;6.63;;;2.10;;
5351;SDS011;2698;51.454;6.736;2023-09-19T13:30:19;8.93;;;2.50;;
5351;SDS011;2698;51.454;6.736;2023-09-19T13:32:47;5.80;;;2.57;;
5351;SDS011;2698;51.454;6.736;2023-09-19T13:35:15;7.00;;;2.13;;
5351;SDS011;2698;51.454;6.736;2023-09-19T13:37:42;5.07;;;2.27;;
5351;SDS011;2698;51.454;6.736;2023-09-19T13:40:12;6.27;;;2.40;;
5351;SDS011;2698;51.454;6.736;2023-09-19T13:42:39;7.60;;;1.93;;
5351;SDS011;2698;51.454;6.736;2023-09-19T13:45:07;5.77;;;2.30;;
5351;SDS011;2698;51.454;6.736;2023-09-19T13:47:37;5.07;;;2.10;;
5351;SDS011;2698;51.454;6.736;2023-09-19T13:50:06;5.33;;;1.77;;
5351;SDS011;2698;51.454;6.736;2023-09-19T13:52:33;6.63;;;2.20;;
5351;SDS011;2698;51.454;6.736;2023-09-19T13:55:00;7.90;;;2.57;;
5351;SDS011;2698;51.454;6.736;2023-09-19T13:57:28;5.10;;;1.93;;
5351;SDS011;2698;51.454;6.736;2023-09-19T13:59:55;5.33;;;2.17;;
5351;SDS011;2698;51.454;6.736;2023-09-19T14:02:22;9.20;;;2.20;;
5351;SDS011;2698;51.454;6.736;2023-09-19T14:04:49;5.87;;;2.63;;
5351;SDS011;2698;51.454;6.736;2023-09-19T14:07:18;5.57;;;2.20;;
5351;SDS011;2698;51.454;6.736;2023-09-19T14:09:45;8.07;;;1.97;;
5351;SDS011;2698;51.454;6.736;2023-09-19T14:12:12;4.33;;;2.50;;
5351;SDS011;2698;51.454;6.736;2023-09-19T14:14:39;4.43;;;1.57;;
5351;SDS011;2698;51.454;6.736;2023-09-19T14:17:07;6.33;;;2.50;;
5351;SDS011;2698;51.454;6.736;2023-09-19T14:19:34;6.47;;;2.67;;
5351;SDS011;2698;51.454;6.736;2023-09-19T14:22:01;5.23;;;1.57;;
5351;SDS011;2698;51.454;6.736;2023-09-19T14:24:33;4.73;;;2.00;;
5351;SDS011;2698;51.454;6.736;2023-09-19T14:27:01;6.10;;;2.07;;
5351;SDS011;2698;51.454;6.736;2023-09-19T14:29:29;4.13;;;1.40;;
5351;SDS011;2698;51.454;6.736;2023-09-19T14:31:56;4.90;;;1.50;;
5351;SDS011;2698;51.454;6.736;2023-09-19T14:34:23;10.43;;;1.93;;
5351;SDS011;2698;51.454;6.736;2023-09-19T14:36:51;4.07;;;1.50;;
5351;SDS011;2698;51.454;6.736;2023-09-19T14:39:19;5.00;;;1.90;;
5351;SDS011;2698;51.454;6.736;2023-09-19T14:41:47;7.80;;;2.03;;
5351;SDS011;2698;51.454;6.736;2023-09-19T14:44:14;4.23;;;1.80;;
5351;SDS011;2698;51.454;6.736;2023-09-19T14:46:42;5.07;;;1.97;;
5351;SDS011;2698;51.454;6.736;2023-09-19T14:49:10;5.80;;;1.47;;
5351;SDS011;2698;51.454;6.736;2023-09-19T14:51:37;15.03;;;2.07;;
5351;SDS011;2698;51.454;6.736;2023-09-19T14:54:05;5.03;;;1.90;;
5351;SDS011;2698;51.454;6.736;2023-09-19T14:56:33;7.93;;;1.47;;
5351;SDS011;2698;51.454;6.736;2023-09-19T14:59:01;4.30;;;2.03;;
5351;SDS011;2698;51.454;6.736;2023-09-19T15:01:29;1.97;;;1.77;;
5351;SDS011;2698;51.454;6.736;2023-09-19T15:03:57;4.87;;;2.40;;
5351;SDS011;2698;51.454;6.736;2023-09-19T15:06:26;4.43;;;2.13;;
5351;SDS011;2698;51.454;6.736;2023-09-19T15:08:53;6.80;;;1.60;;
5351;SDS011;2698;51.454;6.736;2023-09-19T15:11:20;7.30;;;1.60;;
5351;SDS011;2698;51.454;6.736;2023-09-19T15:13:48;4.67;;;2.53;;
5351;SDS011;2698;51.454;6.736;2023-09-19T15:16:18;7.07;;;2.23;;
5351;SDS011;2698;51.454;6.736;2023-09-19T15:18:45;6.87;;;2.53;;
5351;SDS011;2698;51.454;6.736;2023-09-19T15:21:13;3.17;;;1.87;;
5351;SDS011;2698;51.454;6.736;2023-09-19T15:23:41;3.40;;;1.80;;
5351;SDS011;2698;51.454;6.736;2023-09-19T15:26:10;7.33;;;1.73;;
5351;SDS011;2698;51.454;6.736;2023-09-19T15:28:37;6.87;;;2.23;;
5351;SDS011;2698;51.454;6.736;2023-09-19T15:31:05;3.13;;;1.40;;
5351;SDS011;2698;51.454;6.736;2023-09-19T15:33:34;2.50;;;1.60;;